Time;durP1;ratioP1;P1;durP2;ratioP2;P2;SDS_P1;SDS_P2;PMS_P1;PMS_P2;Temp;Humidity;BMP_temperature;BMP_pressure;BME280_temperature;BME280_humidity;BME280_pressure;Samples;Min_cycle;Max_cycle;Signal;HPM_P1;HPM_P2
2024/04/24 00:00:11;;;;;;;2.67;2.58;;;3.70;99.90;;;;;;5488943;26;20002;-73
2024/04/24 00:02:38;;;;;;;4.80;3.33;;;3.70;99.90;;;;;;5461020;26;20010;-73
2024/04/24 00:05:05;;;;;;;2.92;2.50;;;3.70;99.90;;;;;;5452901;26;19999;-73
2024/04/24 00:07:33;;;;;;;4.93;3.10;;;3.70;99.90;;;;;;5450349;26;19995;-72
2024/04/24 00:10:00;;;;;;;4.10;2.03;;;3.80;99.90;;;;;;5452308;26;20006;-73
2024/04/24 00:12:27;;;;;;;2.42;1.98;;;3.80;99.90;;;;;;5422917;26;19995;-73
2024/04/24 00:14:54;;;;;;;5.47;2.95;;;3.90;99.90;;;;;;5482426;26;19998;-73
2024/04/24 00:17:21;;;;;;;2.90;2.60;;;3.90;99.90;;;;;;5422894;26;20071;-72
2024/04/24 00:19:48;;;;;;;4.28;3.22;;;4.10;99.90;;;;;;5422739;26;19999;-73
2024/04/24 00:22:16;;;;;;;3.75;3.45;;;4.20;99.90;;;;;;5453774;26;20459;-73
2024/04/24 00:24:43;;;;;;;6.63;2.67;;;4.20;99.90;;;;;;5453965;26;20014;-73
2024/04/24 00:27:10;;;;;;;4.72;2.03;;;4.20;99.90;;;;;;5453538;26;20823;-73
2024/04/24 00:29:37;;;;;;;3.88;2.95;;;4.20;99.90;;;;;;5453892;26;20074;-73
2024/04/24 00:32:07;;;;;;;3.53;2.05;;;4.10;99.90;;;;;;5453514;26;20014;-73
2024/04/24 00:34:34;;;;;;;2.85;2.63;;;4.00;99.90;;;;;;5453951;26;20043;-73
2024/04/24 00:37:01;;;;;;;2.08;2.05;;;4.00;99.90;;;;;;5451959;26;19995;-73
2024/04/24 00:39:28;;;;;;;6.10;3.63;;;3.90;99.90;;;;;;5453831;26;19995;-72
2024/04/24 00:41:55;;;;;;;7.68;2.17;;;4.00;99.90;;;;;;5452022;26;20005;-72
2024/04/24 00:44:22;;;;;;;3.25;2.50;;;4.00;99.90;;;;;;5451763;26;20436;-72
2024/04/24 00:46:49;;;;;;;2.63;2.45;;;3.90;99.90;;;;;;5453957;26;20002;-72
2024/04/24 00:49:18;;;;;;;3.20;2.35;;;4.00;99.90;;;;;;5451908;26;19995;-73
2024/04/24 00:51:46;;;;;;;3.33;2.90;;;4.00;99.90;;;;;;5453706;26;20441;-72
2024/04/24 00:54:14;;;;;;;2.83;2.63;;;4.10;99.90;;;;;;5453103;26;20080;-72
2024/04/24 00:56:41;;;;;;;3.40;3.20;;;4.10;99.90;;;;;;5450189;26;20006;-72
2024/04/24 00:59:09;;;;;;;1.77;1.67;;;4.10;99.90;;;;;;5451456;26;20135;-72
2024/04/24 01:01:36;;;;;;;4.90;2.78;;;4.00;99.90;;;;;;5450533;26;20078;-72
2024/04/24 01:04:03;;;;;;;1.38;1.27;;;4.00;99.90;;;;;;5451512;26;20080;-72
2024/04/24 01:06:31;;;;;;;3.70;2.95;;;4.00;99.90;;;;;;5451276;26;20003;-72
2024/04/24 01:08:58;;;;;;;5.43;2.67;;;4.00;99.90;;;;;;5451752;26;20013;-72
2024/04/24 01:11:25;;;;;;;7.25;3.95;;;4.00;99.90;;;;;;5452941;26;20401;-72
2024/04/24 01:13:52;;;;;;;6.55;3.35;;;4.00;99.90;;;;;;5451873;26;20010;-72
2024/04/24 01:16:24;;;;;;;2.70;2.42;;;3.90;99.90;;;;;;5453035;26;20005;-72
2024/04/24 01:19:26;;;;;;;5.50;3.00;;;3.90;99.90;;;;;;5451708;26;20067;-72
2024/04/24 01:22:35;;;;;;;4.10;3.05;;;4.10;99.90;;;;;;5453544;26;20071;-72
2024/04/24 01:25:23;;;;;;;3.72;3.20;;;3.90;99.90;;;;;;5453631;26;20063;-72
2024/04/24 01:27:51;;;;;;;4.57;3.40;;;3.90;99.90;;;;;;5451509;26;19995;-72
2024/04/24 01:30:18;;;;;;;3.40;2.53;;;3.90;99.90;;;;;;5451352;26;20092;-72
2024/04/24 01:32:45;;;;;;;5.43;2.63;;;3.90;99.90;;;;;;5451204;26;19999;-72
2024/04/24 01:35:12;;;;;;;4.75;3.80;;;3.90;99.90;;;;;;5452676;26;20010;-72
2024/04/24 01:37:39;;;;;;;3.33;3.05;;;4.00;99.90;;;;;;5451427;26;20346;-72
2024/04/24 01:40:07;;;;;;;3.30;3.10;;;4.00;99.90;;;;;;5481315;26;20064;-72
2024/04/24 01:42:34;;;;;;;3.38;2.10;;;4.00;99.90;;;;;;5452860;26;20021;-72
2024/04/24 01:45:01;;;;;;;4.05;2.88;;;4.00;99.90;;;;;;5451062;26;20005;-72
2024/04/24 01:47:28;;;;;;;4.85;3.13;;;4.10;99.90;;;;;;5450778;26;19999;-72
2024/04/24 01:49:55;;;;;;;5.18;3.90;;;4.20;99.90;;;;;;5452880;26;20003;-73
2024/04/24 01:52:22;;;;;;;4.10;2.60;;;4.30;99.90;;;;;;5450803;26;20018;-73
2024/04/24 01:54:49;;;;;;;3.88;2.40;;;4.40;99.90;;;;;;5453250;26;19995;-72
2024/04/24 01:57:16;;;;;;;4.70;2.20;;;4.40;99.90;;;;;;5421514;26;20007;-72
2024/04/24 01:59:43;;;;;;;3.60;2.60;;;4.40;99.90;;;;;;5451122;26;20484;-72
2024/04/24 02:02:10;;;;;;;1.45;0.98;;;4.40;99.90;;;;;;5481342;26;20075;-72
2024/04/24 02:04:37;;;;;;;3.13;2.83;;;4.40;99.90;;;;;;5452817;26;20027;-72
2024/04/24 02:07:04;;;;;;;4.50;2.50;;;4.30;99.90;;;;;;5452198;26;20063;-72
2024/04/24 02:09:31;;;;;;;6.55;3.20;;;4.30;99.90;;;;;;5452268;26;19994;-72
2024/04/24 02:11:59;;;;;;;6.68;3.47;;;4.30;99.90;;;;;;5452476;26;20440;-72
2024/04/24 02:14:32;;;;;;;3.72;2.20;;;4.20;99.90;;;;;;5452178;26;20013;-72
2024/04/24 02:16:59;;;;;;;6.35;2.65;;;4.10;99.90;;;;;;5481157;26;19999;-71
2024/04/24 02:19:26;;;;;;;6.53;2.25;;;4.10;99.90;;;;;;5420510;26;20353;-72
2024/04/24 02:21:53;;;;;;;2.85;2.45;;;4.10;99.90;;;;;;5450408;26;19999;-72
2024/04/24 02:25:33;;;;;;;2.65;2.35;;;4.10;99.90;;;;;;5452108;26;19999;-72
2024/04/24 02:27:07;;;;;;;4.05;2.60;;;4.00;99.90;;;;;;5452118;26;20038;-71
2024/04/24 02:29:34;;;;;;;3.45;2.95;;;4.00;99.90;;;;;;5451929;26;20003;-71
2024/04/24 02:32:09;;;;;;;9.18;2.90;;;4.00;99.90;;;;;;5452704;26;20019;-72
2024/04/24 02:34:36;;;;;;;2.45;2.10;;;3.90;99.90;;;;;;5452037;26;20332;-72
2024/04/24 02:37:04;;;;;;;5.13;4.60;;;4.00;99.90;;;;;;5451023;26;19995;-72
2024/04/24 02:39:31;;;;;;;3.15;2.95;;;4.00;99.90;;;;;;5420672;26;19999;-71
2024/04/24 02:41:58;;;;;;;6.30;1.77;;;3.90;99.90;;;;;;5450289;26;19995;-72
2024/04/24 02:44:25;;;;;;;3.38;3.05;;;3.90;99.90;;;;;;5451809;26;20007;-72
2024/04/24 02:46:52;;;;;;;6.10;3.75;;;3.90;99.90;;;;;;5450155;26;19995;-72
2024/04/24 02:49:19;;;;;;;2.95;2.75;;;3.90;99.90;;;;;;5449871;26;20006;-72
2024/04/24 02:51:46;;;;;;;3.25;3.03;;;3.80;99.90;;;;;;5450258;26;20516;-71
2024/04/24 02:54:14;;;;;;;3.65;3.20;;;3.80;99.90;;;;;;5451877;26;20067;-72
2024/04/24 02:56:41;;;;;;;6.78;4.07;;;3.80;99.90;;;;;;5449954;26;20097;-72
2024/04/24 02:59:08;;;;;;;4.78;2.05;;;3.80;99.90;;;;;;5450063;26;20048;-72
2024/04/24 03:01:35;;;;;;;8.90;3.75;;;3.70;99.90;;;;;;5460350;26;20006;-71
2024/04/24 03:04:02;;;;;;;5.97;3.78;;;3.70;99.90;;;;;;5463165;26;19999;-71
2024/04/24 03:06:29;;;;;;;11.63;3.42;;;3.70;99.90;;;;;;5485241;26;20005;-71
2024/04/24 03:08:56;;;;;;;3.20;1.77;;;3.80;99.90;;;;;;5516864;25;20455;-72
2024/04/24 03:11:23;;;;;;;2.60;2.33;;;3.80;99.90;;;;;;5479990;26;20010;-71
2024/04/24 03:13:50;;;;;;;2.60;2.35;;;3.90;99.90;;;;;;5479532;26;20067;-72
2024/04/24 03:16:17;;;;;;;3.05;2.80;;;3.90;99.90;;;;;;5449597;26;20066;-71
2024/04/24 03:18:44;;;;;;;5.28;1.98;;;4.00;99.90;;;;;;5450133;26;20098;-71
2024/04/24 03:21:19;;;;;;;5.03;2.80;;;4.00;99.90;;;;;;5449519;26;19995;-71
2024/04/24 03:23:47;;;;;;;4.38;2.25;;;4.10;99.90;;;;;;5451556;26;19995;-71
2024/04/24 03:26:14;;;;;;;2.90;1.88;;;4.20;99.90;;;;;;5451338;26;19999;-72
2024/04/24 03:28:41;;;;;;;6.30;3.03;;;4.30;99.90;;;;;;5449133;26;20035;-72
2024/04/24 03:31:08;;;;;;;4.47;4.18;;;4.30;99.90;;;;;;5449622;26;20011;-71
2024/04/24 03:33:35;;;;;;;3.00;2.80;;;4.40;99.90;;;;;;5450901;26;19999;-72
2024/04/24 03:36:03;;;;;;;6.43;3.60;;;4.40;99.90;;;;;;5451107;26;20009;-72
2024/04/24 03:38:30;;;;;;;3.78;2.80;;;4.40;99.90;;;;;;5449295;26;19999;-72
2024/04/24 03:40:57;;;;;;;3.00;1.52;;;4.50;99.90;;;;;;5419780;26;20009;-72
2024/04/24 03:43:24;;;;;;;4.45;1.63;;;4.50;99.90;;;;;;5479610;26;20171;-72
2024/04/24 03:45:51;;;;;;;4.78;4.22;;;4.40;99.90;;;;;;5451186;26;20325;-72
2024/04/24 03:48:18;;;;;;;4.65;2.67;;;4.40;99.90;;;;;;5449283;26;20079;-72
2024/04/24 03:50:45;;;;;;;5.85;3.90;;;4.40;99.90;;;;;;5450939;26;20007;-71
2024/04/24 03:53:12;;;;;;;5.38;3.80;;;4.40;99.90;;;;;;5449560;26;19995;-71
2024/04/24 03:55:40;;;;;;;6.25;4.78;;;4.40;99.90;;;;;;5450949;26;20005;-72
2024/04/24 03:58:07;;;;;;;5.68;2.40;;;4.60;99.90;;;;;;5449345;26;20339;-72
2024/04/24 04:00:34;;;;;;;3.78;2.35;;;4.50;99.90;;;;;;5450594;26;20006;-72
2024/04/24 04:03:01;;;;;;;6.15;3.35;;;4.60;99.90;;;;;;5450988;26;20007;-72
2024/04/24 04:05:29;;;;;;;4.22;3.80;;;4.70;99.90;;;;;;5450348;26;20006;-72
2024/04/24 04:07:59;;;;;;;4.30;2.80;;;4.70;99.90;;;;;;5448789;26;20367;-71
2024/04/24 04:10:26;;;;;;;2.80;2.25;;;4.70;99.90;;;;;;5449222;26;20011;-71
2024/04/24 04:12:53;;;;;;;3.05;2.10;;;4.80;99.90;;;;;;5450289;26;20005;-71
2024/04/24 04:15:21;;;;;;;3.47;2.92;;;4.80;99.90;;;;;;5450628;26;20014;-71
2024/04/24 04:17:48;;;;;;;3.33;2.92;;;4.80;99.90;;;;;;5448462;26;19999;-71
2024/04/24 04:20:16;;;;;;;3.75;2.50;;;4.80;99.90;;;;;;5478718;26;20324;-72
2024/04/24 04:22:43;;;;;;;8.43;3.97;;;4.80;99.90;;;;;;5450161;26;19999;-72
2024/04/24 04:25:10;;;;;;;7.22;2.72;;;4.90;99.90;;;;;;5478843;26;20135;-72
2024/04/24 04:27:38;;;;;;;7.35;5.13;;;4.90;99.90;;;;;;5450257;26;19999;-72
2024/04/24 04:30:06;;;;;;;5.65;2.53;;;4.90;99.90;;;;;;5450843;26;19995;-72
2024/04/24 04:32:33;;;;;;;5.13;2.42;;;4.90;99.90;;;;;;5454055;26;20006;-72
2024/04/24 04:35:00;;;;;;;3.28;2.55;;;4.90;99.90;;;;;;5454595;26;20006;-72
2024/04/24 04:37:27;;;;;;;7.05;3.72;;;5.00;99.90;;;;;;5454434;26;20010;-72
2024/04/24 04:39:54;;;;;;;4.60;3.92;;;5.00;99.90;;;;;;5482291;26;20018;-72
2024/04/24 04:42:22;;;;;;;5.88;2.88;;;5.00;99.90;;;;;;5454246;26;20067;-72
2024/04/24 04:44:49;;;;;;;4.95;3.28;;;5.00;99.90;;;;;;5453962;26;20321;-71
2024/04/24 04:47:16;;;;;;;5.80;3.53;;;4.90;99.90;;;;;;5482690;26;20038;-71
2024/04/24 04:49:43;;;;;;;4.38;2.28;;;4.90;99.90;;;;;;5482600;26;19994;-71
2024/04/24 04:52:10;;;;;;;3.95;3.60;;;4.90;99.90;;;;;;5482784;26;20006;-71
2024/04/24 04:54:37;;;;;;;9.70;4.85;;;5.10;99.90;;;;;;5482472;26;20880;-71
2024/04/24 04:57:04;;;;;;;5.10;3.95;;;4.90;99.90;;;;;;5454208;26;19999;-71
2024/04/24 04:59:31;;;;;;;7.25;4.22;;;4.90;99.90;;;;;;5482129;26;19998;-72
2024/04/24 05:01:58;;;;;;;5.63;5.22;;;4.90;99.90;;;;;;5476997;26;20006;-71
2024/04/24 05:04:26;;;;;;;6.20;3.42;;;4.90;99.90;;;;;;5489237;26;20016;-72
2024/04/24 05:06:53;;;;;;;4.45;4.05;;;4.90;99.90;;;;;;5487069;26;20014;-72
2024/04/24 05:09:20;;;;;;;2.78;2.60;;;4.90;99.90;;;;;;5490114;26;20029;-72
2024/04/24 05:11:48;;;;;;;3.67;3.35;;;4.90;99.90;;;;;;5489678;26;20328;-73
2024/04/24 05:14:16;;;;;;;3.53;3.03;;;4.80;99.90;;;;;;5488398;26;20456;-73
2024/04/24 05:16:43;;;;;;;6.43;3.55;;;4.80;99.90;;;;;;5489636;26;20010;-72
2024/04/24 05:19:10;;;;;;;1.38;1.27;;;4.80;99.90;;;;;;5488098;26;20032;-72
2024/04/24 05:21:37;;;;;;;5.88;4.20;;;4.70;99.90;;;;;;5490026;26;20004;-72
2024/04/24 05:24:05;;;;;;;2.53;2.33;;;4.70;99.90;;;;;;5458051;26;19994;-72
2024/04/24 05:29:17;;;;;;;2.60;2.40;;;4.70;99.90;;;;;;5488549;26;19998;-72
2024/04/24 05:31:45;;;;;;;3.33;2.60;;;4.70;99.90;;;;;;5487951;26;20022;-72
2024/04/24 05:34:12;;;;;;;2.95;2.80;;;4.60;99.90;;;;;;5487931;26;20504;-72
2024/04/24 05:36:39;;;;;;;2.10;2.00;;;4.60;99.90;;;;;;5489892;26;20002;-72
2024/04/24 05:39:06;;;;;;;2.45;2.20;;;4.50;99.90;;;;;;5457528;26;20322;-72
2024/04/24 05:41:33;;;;;;;2.03;2.03;;;4.60;99.90;;;;;;5487629;26;20453;-72
2024/04/24 05:44:00;;;;;;;3.03;2.70;;;4.50;99.90;;;;;;5488758;26;20009;-72
2024/04/24 05:46:27;;;;;;;2.47;2.28;;;4.40;99.90;;;;;;5518344;26;20002;-72
2024/04/24 05:48:54;;;;;;;3.25;3.08;;;4.50;99.90;;;;;;5488909;26;20013;-72
2024/04/24 05:51:21;;;;;;;3.28;3.03;;;4.50;99.90;;;;;;5489449;26;20356;-72
2024/04/24 05:53:48;;;;;;;2.20;2.10;;;4.50;99.90;;;;;;5487273;26;20074;-72
2024/04/24 05:56:15;;;;;;;1.65;1.55;;;4.50;99.90;;;;;;5489432;26;19998;-72
2024/04/24 05:58:44;;;;;;;1.90;1.83;;;4.60;99.90;;;;;;5489007;26;20022;-71
2024/04/24 06:01:11;;;;;;;1.00;0.90;;;4.70;99.90;;;;;;5487779;26;20405;-72
2024/04/24 06:03:38;;;;;;;2.97;2.72;;;4.70;99.90;;;;;;5489406;26;20022;-71
2024/04/24 06:06:05;;;;;;;2.42;1.65;;;4.60;99.90;;;;;;5488573;26;20157;-71
2024/04/24 06:08:32;;;;;;;4.22;2.28;;;4.70;99.90;;;;;;5451158;26;20015;-71
2024/04/24 06:10:59;;;;;;;4.60;1.80;;;4.90;99.90;;;;;;5453278;26;19998;-72
2024/04/24 06:13:27;;;;;;;2.58;2.38;;;5.40;99.90;;;;;;5419404;26;20010;-71
2024/04/24 06:15:54;;;;;;;2.33;2.22;;;5.90;99.90;;;;;;5450643;26;19994;-72
2024/04/24 06:18:21;;;;;;;1.70;1.60;;;6.10;99.90;;;;;;5420912;26;20011;-73
2024/04/24 06:20:48;;;;;;;1.58;1.48;;;6.10;99.90;;;;;;5450484;26;20011;-72
2024/04/24 06:23:15;;;;;;;2.35;2.25;;;6.10;99.90;;;;;;5452339;26;19998;-72
2024/04/24 06:25:44;;;;;;;3.80;2.38;;;5.90;99.90;;;;;;5450714;26;20131;-72
2024/04/24 06:28:11;;;;;;;1.00;0.95;;;6.00;99.90;;;;;;5450166;26;20007;-72
2024/04/24 06:30:39;;;;;;;2.47;2.28;;;6.20;99.90;;;;;;5421072;26;20010;-73
2024/04/24 06:33:06;;;;;;;2.08;1.98;;;6.30;99.90;;;;;;5451957;26;19999;-73
2024/04/24 06:35:34;;;;;;;2.55;2.35;;;6.30;99.90;;;;;;5452231;26;20017;-72
2024/04/24 06:38:01;;;;;;;1.85;1.75;;;6.10;99.90;;;;;;5451706;26;20010;-73
2024/04/24 06:40:29;;;;;;;2.95;1.98;;;6.00;99.90;;;;;;5452247;26;20360;-72
2024/04/24 06:42:56;;;;;;;2.42;1.88;;;5.90;99.90;;;;;;5480458;26;20007;-72
2024/04/24 06:45:23;;;;;;;2.60;2.35;;;5.90;99.90;;;;;;5452482;26;19995;-72
2024/04/24 06:47:50;;;;;;;2.17;2.08;;;6.00;99.90;;;;;;5480763;26;20072;-72
2024/04/24 06:50:17;;;;;;;3.30;2.40;;;6.40;99.90;;;;;;5452041;26;20352;-72
2024/04/24 06:52:44;;;;;;;1.63;1.52;;;6.50;99.90;;;;;;5420796;26;20005;-72
2024/04/24 06:55:11;;;;;;;2.40;2.28;;;6.50;99.90;;;;;;5450362;26;19995;-72
2024/04/24 06:57:38;;;;;;;2.00;1.88;;;6.40;99.90;;;;;;5451732;26;19999;-72
2024/04/24 07:00:06;;;;;;;1.92;1.77;;;6.30;99.90;;;;;;5451664;26;19999;-72
2024/04/24 07:02:33;;;;;;;2.45;2.08;;;6.30;99.90;;;;;;5451864;26;19999;-72
2024/04/24 07:05:00;;;;;;;1.95;1.85;;;6.40;99.90;;;;;;5451742;26;19998;-72
2024/04/24 07:07:27;;;;;;;2.65;1.83;;;6.60;99.90;;;;;;5451353;26;20011;-72
2024/04/24 07:09:54;;;;;;;3.10;2.90;;;6.80;99.90;;;;;;5451721;26;19999;-72
2024/04/24 07:12:21;;;;;;;4.90;2.75;;;6.90;99.90;;;;;;5420013;26;20310;-72
2024/04/24 07:14:48;;;;;;;4.65;4.38;;;7.00;99.90;;;;;;5451537;26;20440;-72
2024/04/24 07:17:15;;;;;;;1.73;1.27;;;7.00;99.90;;;;;;5449424;26;20354;-73
2024/04/24 07:19:43;;;;;;;3.40;3.20;;;7.00;99.90;;;;;;5451890;26;19999;-73
2024/04/24 07:22:10;;;;;;;2.95;2.85;;;6.90;99.90;;;;;;5451239;26;20006;-73
2024/04/24 07:24:37;;;;;;;5.00;2.80;;;6.90;99.90;;;;;;5451753;26;20382;-72
2024/04/24 07:27:04;;;;;;;3.25;3.05;;;6.90;99.90;;;;;;5451062;26;20037;-72
2024/04/24 07:29:31;;;;;;;3.95;3.22;;;6.90;99.90;;;;;;5449686;26;20067;-72
2024/04/24 07:31:58;;;;;;;3.83;1.95;;;6.80;99.90;;;;;;5451165;26;20439;-72
2024/04/24 07:34:26;;;;;;;2.45;1.83;;;6.70;99.90;;;;;;5450025;26;20006;-72
2024/04/24 07:36:53;;;;;;;3.47;2.75;;;6.80;99.90;;;;;;5449585;26;20009;-71
2024/04/24 07:39:20;;;;;;;2.42;1.98;;;6.90;99.90;;;;;;5450927;26;20327;-73
2024/04/24 07:41:47;;;;;;;1.77;1.67;;;6.90;99.90;;;;;;5449434;26;19998;-73
2024/04/24 07:44:14;;;;;;;1.00;1.00;;;6.80;99.90;;;;;;5449265;26;20389;-72
2024/04/24 07:46:41;;;;;;;2.15;2.05;;;6.70;99.90;;;;;;5419669;26;20009;-72
2024/04/24 07:49:08;;;;;;;3.72;2.67;;;6.70;99.90;;;;;;5479216;26;19999;-71
2024/04/24 07:51:35;;;;;;;4.18;2.38;;;6.70;99.90;;;;;;5479540;26;20044;-72
2024/04/24 07:54:02;;;;;;;1.23;1.23;;;6.80;99.90;;;;;;5479169;26;20013;-72
2024/04/24 07:56:29;;;;;;;2.15;2.05;;;6.80;99.90;;;;;;5419533;26;20450;-72
2024/04/24 07:58:57;;;;;;;4.18;2.55;;;6.70;99.90;;;;;;5448988;26;19995;-72
2024/04/24 08:01:24;;;;;;;1.77;1.67;;;6.70;99.90;;;;;;5451007;26;20031;-72
2024/04/24 08:03:51;;;;;;;0.98;0.98;;;6.60;99.90;;;;;;5449128;26;20069;-72
2024/04/24 08:06:18;;;;;;;1.90;1.80;;;6.60;99.90;;;;;;5452835;26;20010;-72
2024/04/24 08:08:45;;;;;;;2.10;2.00;;;6.70;99.90;;;;;;5454653;26;20067;-71
2024/04/24 08:11:12;;;;;;;2.45;2.15;;;7.30;99.90;;;;;;5483103;26;20006;-71
2024/04/24 08:13:39;;;;;;;3.90;1.77;;;8.40;99.90;;;;;;5452998;26;20354;-72
2024/04/24 08:16:06;;;;;;;4.20;2.05;;;9.50;99.90;;;;;;5392801;26;20011;-72
2024/04/24 08:18:33;;;;;;;1.98;1.50;;;10.40;99.90;;;;;;5452491;26;20074;-72
2024/04/24 08:21:01;;;;;;;1.30;1.23;;;11.20;99.90;;;;;;5454150;26;20440;-72
2024/04/24 08:23:28;;;;;;;3.03;1.35;;;11.70;99.90;;;;;;5453397;26;20365;-73
2024/04/24 08:25:55;;;;;;;1.45;1.38;;;12.20;99.90;;;;;;5454016;26;20014;-73
2024/04/24 08:28:23;;;;;;;2.00;1.67;;;12.50;99.90;;;;;;5453844;26;20011;-73
2024/04/24 08:31:02;;;;;;;2.22;1.60;;;12.30;99.90;;;;;;5454186;26;20013;-73
2024/04/24 08:33:30;;;;;;;2.00;1.80;;;11.80;99.90;;;;;;5452101;26;20003;-73
2024/04/24 08:36:06;;;;;;;2.03;1.92;;;11.30;99.90;;;;;;5453792;26;19999;-73
2024/04/24 08:38:33;;;;;;;2.75;1.38;;;10.60;99.90;;;;;;5452575;26;20432;-73
2024/04/24 08:41:05;;;;;;;2.03;1.42;;;10.00;99.90;;;;;;5453973;26;20005;-73
2024/04/24 08:43:36;;;;;;;2.53;1.92;;;9.40;99.90;;;;;;5453972;26;19999;-73
2024/04/24 08:46:05;;;;;;;2.85;2.08;;;9.00;99.90;;;;;;5453922;26;20016;-73
2024/04/24 08:48:40;;;;;;;3.15;1.35;;;8.80;99.90;;;;;;5422205;26;19995;-72
2024/04/24 08:51:10;;;;;;;3.05;2.42;;;8.60;99.90;;;;;;5454090;26;20476;-73
2024/04/24 08:54:01;;;;;;;3.03;1.80;;;8.40;99.90;;;;;;5452321;26;20006;-73
2024/04/24 08:56:39;;;;;;;1.67;1.58;;;8.40;99.90;;;;;;5451571;26;20013;-73
2024/04/24 08:59:33;;;;;;;5.93;1.70;;;8.40;99.90;;;;;;5453749;26;19999;-73
2024/04/24 09:02:04;;;;;;;2.95;1.98;;;8.70;99.90;;;;;;5451043;26;20015;-73
2024/04/24 09:04:32;;;;;;;55.90;7.03;;;9.20;99.90;;;;;;5481733;26;20447;-74
2024/04/24 09:06:59;;;;;;;1.83;1.58;;;10.10;99.90;;;;;;5451700;26;19999;-74
2024/04/24 09:09:27;;;;;;;4.43;1.02;;;10.70;99.90;;;;;;5453075;26;20053;-73
2024/04/24 09:11:59;;;;;;;1.98;1.40;;;10.80;99.90;;;;;;5453460;26;20071;-73
2024/04/24 09:14:27;;;;;;;2.40;1.98;;;10.70;99.90;;;;;;5453079;26;20013;-72
2024/04/24 09:16:56;;;;;;;1.92;1.83;;;10.60;99.90;;;;;;5421314;26;19995;-73
2024/04/24 09:19:23;;;;;;;3.70;1.50;;;10.50;99.90;;;;;;5453132;26;20027;-73
2024/04/24 09:21:50;;;;;;;5.05;1.98;;;10.50;99.90;;;;;;5452060;26;20005;-76
2024/04/24 09:24:18;;;;;;;2.30;2.10;;;10.50;99.90;;;;;;5451459;26;20011;-73
2024/04/24 09:26:49;;;;;;;2.53;1.90;;;10.50;99.90;;;;;;5453521;26;20006;-73
2024/04/24 09:29:17;;;;;;;1.85;1.75;;;10.60;99.90;;;;;;5451420;26;20067;-73
2024/04/24 09:31:44;;;;;;;1.48;0.90;;;10.40;99.90;;;;;;5451895;26;20328;-73
2024/04/24 09:34:12;;;;;;;2.70;1.25;;;10.30;99.90;;;;;;5451147;26;19999;-73
2024/04/24 09:36:42;;;;;;;1.95;1.75;;;10.20;99.90;;;;;;5452654;26;20075;-73
2024/04/24 09:39:13;;;;;;;2.67;1.48;;;10.20;99.90;;;;;;5392100;26;20044;-73
2024/04/24 09:41:46;;;;;;;1.83;1.73;;;10.20;99.90;;;;;;5452703;26;20011;-73
2024/04/24 09:44:14;;;;;;;2.70;2.50;;;10.30;99.90;;;;;;5453012;26;20007;-73
2024/04/24 09:46:52;;;;;;;2.22;2.05;;;10.60;99.90;;;;;;5451383;26;20514;-73
2024/04/24 09:49:20;;;;;;;1.60;1.30;;;10.90;99.90;;;;;;5452508;26;20398;-73
2024/04/24 09:51:49;;;;;;;2.40;2.20;;;11.20;99.90;;;;;;5453071;26;20017;-73
2024/04/24 09:54:17;;;;;;;1.45;1.40;;;11.40;99.20;;;;;;5452746;26;20014;-73
2024/04/24 09:56:46;;;;;;;1.73;1.20;;;11.50;99.20;;;;;;5453216;26;19999;-73
2024/04/24 09:59:17;;;;;;;2.45;1.60;;;11.70;98.30;;;;;;5453063;26;20007;-73
2024/04/24 10:01:53;;;;;;;2.47;1.50;;;12.30;99.90;;;;;;5451221;26;20031;-74
2024/04/24 10:04:25;;;;;;;1.30;1.30;;;13.30;98.50;;;;;;5421383;26;20010;-73
2024/04/24 10:06:54;;;;;;;1.92;1.27;;;14.10;94.30;;;;;;5452864;26;20007;-73
2024/04/24 10:09:25;;;;;;;1.30;1.30;;;14.40;92.60;;;;;;5452558;26;20116;-73
2024/04/24 10:12:04;;;;;;;1.83;1.70;;;14.20;91.80;;;;;;5452568;26;19995;-73
2024/04/24 10:14:37;;;;;;;1.60;1.35;;;14.10;91.30;;;;;;5452044;26;19999;-73
2024/04/24 10:17:05;;;;;;;1.77;0.93;;;14.40;91.00;;;;;;5452567;26;20018;-74
2024/04/24 10:19:33;;;;;;;2.08;1.98;;;14.60;91.00;;;;;;5450471;26;20003;-74
2024/04/24 10:22:01;;;;;;;1.38;1.27;;;14.70;90.50;;;;;;5452445;26;20082;-74
2024/04/24 10:24:30;;;;;;;1.65;1.40;;;15.00;89.50;;;;;;5452291;26;20071;-74
2024/04/24 10:27:00;;;;;;;1.05;1.05;;;15.50;89.90;;;;;;5450667;26;20076;-74
2024/04/24 10:29:28;;;;;;;1.70;1.15;;;15.80;89.30;;;;;;5449837;26;20006;-74
2024/04/24 10:31:59;;;;;;;1.88;1.08;;;16.20;87.00;;;;;;5450685;26;20423;-74
2024/04/24 10:34:28;;;;;;;0.93;0.93;;;16.00;88.00;;;;;;5451923;26;20009;-73
2024/04/24 10:36:56;;;;;;;2.78;1.23;;;15.80;86.90;;;;;;5450557;26;20003;-73
2024/04/24 10:39:23;;;;;;;1.00;1.00;;;15.40;86.40;;;;;;5452646;26;20011;-73
2024/04/24 10:41:51;;;;;;;2.17;1.20;;;14.90;86.90;;;;;;5452481;26;19999;-73
2024/04/24 10:44:19;;;;;;;2.03;1.27;;;14.70;87.20;;;;;;5452179;26;20009;-74
2024/04/24 10:46:47;;;;;;;1.35;1.25;;;14.70;87.50;;;;;;5452008;26;20006;-73
2024/04/24 10:49:14;;;;;;;1.65;1.42;;;14.90;87.80;;;;;;5451660;26;20075;-74
2024/04/24 10:51:48;;;;;;;1.98;1.10;;;15.20;84.00;;;;;;5451832;26;20082;-74
2024/04/24 10:54:15;;;;;;;1.75;0.95;;;15.50;84.80;;;;;;5451874;26;20010;-74
2024/04/24 10:56:44;;;;;;;0.80;0.80;;;16.20;84.00;;;;;;5449772;26;20011;-74
2024/04/24 10:59:12;;;;;;;1.23;1.23;;;16.50;82.80;;;;;;5420514;26;20010;-74
2024/04/24 11:01:43;;;;;;;2.15;1.10;;;16.80;81.30;;;;;;5449486;26;20529;-74
2024/04/24 11:04:16;;;;;;;2.35;1.95;;;16.80;79.30;;;;;;5451748;26;20010;-74
2024/04/24 11:06:44;;;;;;;1.45;1.17;;;16.30;79.60;;;;;;5451073;26;20013;-74
2024/04/24 11:09:11;;;;;;;3.60;1.48;;;15.50;81.20;;;;;;5449853;26;19998;-74
2024/04/24 11:11:39;;;;;;;1.88;1.77;;;14.90;83.00;;;;;;5449512;26;20011;-74
2024/04/24 11:14:06;;;;;;;2.85;1.73;;;14.70;83.30;;;;;;5449714;26;19999;-74
2024/04/24 11:16:36;;;;;;;2.63;1.55;;;14.70;82.80;;;;;;5449735;26;20013;-74
2024/04/24 11:19:03;;;;;;;2.00;1.17;;;14.80;82.20;;;;;;5450143;26;20005;-74
2024/04/24 11:21:30;;;;;;;5.95;1.35;;;14.90;81.80;;;;;;5451400;26;20003;-74
2024/04/24 11:23:58;;;;;;;1.67;1.38;;;15.10;80.80;;;;;;5420185;26;20006;-74
2024/04/24 11:26:31;;;;;;;0.85;0.85;;;15.60;80.80;;;;;;5450125;26;20034;-75
2024/04/24 11:29:06;;;;;;;1.45;1.35;;;16.30;79.80;;;;;;5480171;26;20544;-75
2024/04/24 11:31:36;;;;;;;1.35;1.23;;;16.50;79.50;;;;;;5449408;26;20012;-75
2024/04/24 11:34:03;;;;;;;3.33;1.63;;;16.30;80.00;;;;;;5449476;26;20104;-75
2024/04/24 11:36:32;;;;;;;2.17;0.90;;;15.80;78.90;;;;;;5479653;26;20003;-75
2024/04/24 11:39:00;;;;;;;3.22;1.27;;;14.90;79.20;;;;;;5449265;26;19999;-74
2024/04/24 11:41:29;;;;;;;3.10;1.80;;;14.10;80.50;;;;;;5451647;26;20014;-74
2024/04/24 11:43:56;;;;;;;6.82;1.48;;;13.40;81.90;;;;;;5452463;26;20030;-74
2024/04/24 11:46:25;;;;;;;4.28;2.42;;;13.00;82.90;;;;;;5454657;26;20031;-74
2024/04/24 11:48:53;;;;;;;3.00;1.65;;;13.40;83.90;;;;;;5452543;26;20075;-75
2024/04/24 11:51:22;;;;;;;2.88;1.38;;;14.20;79.20;;;;;;5454413;26;20006;-75
2024/04/24 11:53:50;;;;;;;4.45;2.97;;;14.50;77.10;;;;;;5452559;26;20041;-74
2024/04/24 11:56:21;;;;;;;2.72;2.22;;;14.70;75.90;;;;;;5453080;26;20021;-74
2024/04/24 11:58:48;;;;;;;6.07;2.13;;;14.80;75.50;;;;;;5454528;26;20419;-75
2024/04/24 12:01:16;;;;;;;3.15;2.20;;;15.10;75.00;;;;;;5454527;26;20021;-74
2024/04/24 12:03:45;;;;;;;5.32;3.20;;;15.00;74.90;;;;;;5471966;26;19999;-74
2024/04/24 12:06:13;;;;;;;4.10;2.25;;;14.40;75.70;;;;;;5500511;26;19997;-74
2024/04/24 12:08:42;;;;;;;2.47;2.28;;;13.80;76.70;;;;;;5494138;26;20001;-74
2024/04/24 12:11:09;;;;;;;2.50;1.85;;;13.20;77.70;;;;;;5499490;26;20005;-73
2024/04/24 12:13:36;;;;;;;2.95;1.77;;;12.70;77.70;;;;;;5527279;26;20074;-74
2024/04/24 12:16:03;;;;;;;1.95;1.85;;;12.60;77.40;;;;;;5525153;26;20009;-74
2024/04/24 12:18:31;;;;;;;1.45;1.30;;;13.00;76.40;;;;;;5527280;25;20030;-74
2024/04/24 12:20:58;;;;;;;2.00;1.88;;;13.70;75.00;;;;;;5472318;26;20022;-74
2024/04/24 12:23:27;;;;;;;1.65;1.50;;;14.30;73.70;;;;;;5466342;26;19999;-74
2024/04/24 12:25:55;;;;;;;2.35;1.83;;;14.70;74.70;;;;;;5451962;26;19999;-74
2024/04/24 12:28:23;;;;;;;1.92;1.35;;;14.50;74.90;;;;;;5453980;26;19999;-74
2024/04/24 12:30:50;;;;;;;5.97;2.38;;;13.90;75.90;;;;;;5451403;26;19998;-74
2024/04/24 12:33:18;;;;;;;2.72;2.22;;;13.40;77.60;;;;;;5453738;26;20349;-74
2024/04/24 12:35:45;;;;;;;3.95;1.55;;;13.20;78.00;;;;;;5481860;26;20339;-74
2024/04/24 12:38:12;;;;;;;4.13;1.70;;;12.90;78.40;;;;;;5452054;26;20044;-75
2024/04/24 12:40:39;;;;;;;4.18;3.00;;;12.90;78.70;;;;;;5453772;26;19999;-74
2024/04/24 12:43:06;;;;;;;3.05;1.90;;;12.90;78.80;;;;;;5451772;26;19994;-74
2024/04/24 12:45:34;;;;;;;5.63;1.60;;;12.90;78.70;;;;;;5454130;26;20005;-74
2024/04/24 12:48:02;;;;;;;2.30;1.52;;;13.10;78.80;;;;;;5452064;26;19999;-74
2024/04/24 12:50:29;;;;;;;4.07;2.83;;;13.50;78.30;;;;;;5451610;26;19998;-74
2024/04/24 12:52:56;;;;;;;3.20;2.30;;;13.50;77.10;;;;;;5451632;26;20123;-74
2024/04/24 12:55:23;;;;;;;3.08;2.35;;;13.20;77.80;;;;;;5453669;26;20014;-74
2024/04/24 12:57:53;;;;;;;1.73;1.63;;;13.50;77.60;;;;;;5451437;26;20010;-74
2024/04/24 13:00:20;;;;;;;5.15;1.40;;;13.70;77.20;;;;;;5453552;26;19999;-74